createdAt,value
2022-07-29T00:00:07.060Z,101537.41
2022-07-29T00:02:36.893Z,101535.06
2022-07-29T00:05:05.917Z,101537.00
2022-07-29T00:07:34.140Z,101535.47
2022-07-29T00:10:02.038Z,101531.31
2022-07-29T00:12:30.079Z,101542.19
2022-07-29T00:14:58.713Z,101537.97
2022-07-29T00:17:26.903Z,101537.28
2022-07-29T00:19:56.153Z,101533.28
2022-07-29T00:22:24.033Z,101529.09
2022-07-29T00:24:52.031Z,101531.19
2022-07-29T00:27:20.152Z,101528.63
2022-07-29T00:29:48.108Z,101524.59
2022-07-29T00:32:15.984Z,101520.41
2022-07-29T00:35:02.334Z,101525.16
2022-07-29T00:37:31.734Z,101521.97
2022-07-29T00:39:59.599Z,101524.03
2022-07-29T00:42:27.369Z,101524.31
2022-07-29T00:44:55.307Z,101529.75
2022-07-29T00:47:23.093Z,101525.69
2022-07-29T00:49:51.075Z,101517.22
2022-07-29T00:52:19.156Z,101520.94
2022-07-29T00:54:48.386Z,101527.38
2022-07-29T00:57:16.519Z,101521.66
2022-07-29T00:59:44.497Z,101513.16
2022-07-29T01:02:12.445Z,101512.44
2022-07-29T01:04:40.914Z,101508.28
2022-07-29T01:07:09.701Z,101502.28
2022-07-29T01:09:45.555Z,101505.22
2022-07-29T01:12:18.881Z,101499.06
2022-07-29T01:14:47.867Z,101501.03
2022-07-29T01:17:22.299Z,101503.09
2022-07-29T01:19:58.199Z,101491.84
2022-07-29T01:22:50.424Z,101493.06
2022-07-29T01:25:42.850Z,101487.22
2022-07-29T01:28:45.469Z,101492.78
2022-07-29T01:31:25.088Z,101473.72
2022-07-29T01:33:59.836Z,101471.34
2022-07-29T01:36:34.468Z,101472.44
2022-07-29T01:39:09.738Z,101457.69
2022-07-29T01:41:42.181Z,101455.31
2022-07-29T01:44:17.535Z,101450.28
2022-07-29T01:46:53.433Z,101447.91
2022-07-29T01:49:26.340Z,101441.09
2022-07-29T01:51:59.535Z,101436.06
2022-07-29T01:54:33.139Z,101427.59
2022-07-29T01:57:02.995Z,101426.03
2022-07-29T01:59:32.035Z,101422.97
2022-07-29T02:02:02.933Z,101422.53
2022-07-29T02:04:34.130Z,101416.69
2022-07-29T02:07:05.812Z,101421.97
2022-07-29T02:09:35.902Z,101416.94
2022-07-29T02:12:06.604Z,101420.81
2022-07-29T02:14:39.215Z,101416.53
2022-07-29T02:17:09.333Z,101417.59
2022-07-29T02:19:40.403Z,101414.16
2022-07-29T02:22:08.752Z,101417.03
2022-07-29T02:24:39.140Z,101424.97
2022-07-29T02:27:06.790Z,101432.19
2022-07-29T02:29:35.301Z,101434.13
2022-07-29T02:32:04.769Z,101425.50
2022-07-29T02:34:35.463Z,101427.56
2022-07-29T02:37:04.731Z,101440.91
2022-07-29T02:39:33.497Z,101439.09
2022-07-29T02:42:05.687Z,101441.03
2022-07-29T02:44:34.841Z,101432.41
2022-07-29T02:47:12.420Z,101434.22
2022-07-29T02:49:48.342Z,101437.81
2022-07-29T02:52:22.196Z,101432.53
2022-07-29T02:54:55.986Z,101427.13
2022-07-29T02:57:30.991Z,101431.72
2022-07-29T03:00:01.230Z,101425.72
2022-07-29T03:02:30.539Z,101431.00
2022-07-29T03:05:03.746Z,101431.97
2022-07-29T03:07:31.737Z,101431.16
2022-07-29T03:10:00.279Z,101431.16
2022-07-29T03:12:29.291Z,101433.78
2022-07-29T03:14:57.470Z,101438.22
2022-07-29T03:17:25.413Z,101435.44
2022-07-29T03:19:53.099Z,101432.94
2022-07-29T03:22:21.978Z,101436.56
2022-07-29T03:24:49.645Z,101426.81
2022-07-29T03:27:17.403Z,101424.31
2022-07-29T03:29:50.026Z,101417.22
2022-07-29T03:32:23.882Z,101411.13
2022-07-29T03:34:52.786Z,101417.34
2022-07-29T03:37:21.760Z,101412.94
2022-07-29T03:39:51.279Z,101420.84
2022-07-29T03:42:21.938Z,101423.50
2022-07-29T03:44:50.795Z,101419.88
2022-07-29T03:47:21.515Z,101422.50
2022-07-29T03:49:53.705Z,101417.09
2022-07-29T03:52:23.249Z,101412.66
2022-07-29T03:54:51.541Z,101406.53
2022-07-29T03:57:22.327Z,101415.31
2022-07-29T03:59:50.904Z,101416.13
2022-07-29T04:02:21.931Z,101413.50
2022-07-29T04:04:51.370Z,101410.72
2022-07-29T04:07:18.946Z,101410.59
2022-07-29T04:09:47.786Z,101405.88
2022-07-29T04:12:15.300Z,101407.28
2022-07-29T04:14:42.829Z,101414.09
2022-07-29T04:17:10.803Z,101414.81
2022-07-29T04:19:38.441Z,101409.53
2022-07-29T04:22:06.138Z,101420.66
2022-07-29T04:24:33.815Z,101416.91
2022-07-29T04:27:02.633Z,101420.38
2022-07-29T04:29:30.150Z,101425.41
2022-07-29T04:31:57.834Z,101425.13
2022-07-29T04:34:28.044Z,101430.03
2022-07-29T04:36:56.132Z,101424.22
2022-07-29T04:39:23.672Z,101423.78
2022-07-29T04:41:52.543Z,101414.63
2022-07-29T04:44:27.662Z,101418.66
2022-07-29T04:46:57.764Z,101423.41
2022-07-29T04:49:25.688Z,101430.16
2022-07-29T04:51:53.359Z,101424.44
2022-07-29T04:54:20.924Z,101421.50
2022-07-29T04:56:48.584Z,101429.88
2022-07-29T04:59:16.485Z,101426.81
2022-07-29T05:01:45.469Z,101429.06
2022-07-29T05:04:13.949Z,101434.91
2022-07-29T05:06:42.135Z,101432.81
2022-07-29T05:20:42.407Z,101430.19
2022-07-29T05:23:01.876Z,101424.88
2022-07-29T05:29:44.775Z,101433.78
2022-07-29T05:33:05.411Z,101431.53
2022-07-29T05:37:13.830Z,101429.31
2022-07-29T05:41:00.974Z,101434.31
2022-07-29T05:44:15.481Z,101423.59
2022-07-29T05:47:09.116Z,101425.03
2022-07-29T05:49:37.665Z,101417.91
2022-07-29T05:52:07.364Z,101414.16
2022-07-29T05:54:36.816Z,101415.53
2022-07-29T05:57:07.816Z,101424.88
2022-07-29T05:59:38.736Z,101424.28
2022-07-29T06:02:07.233Z,101424.38
2022-07-29T06:04:36.145Z,101421.84
2022-07-29T06:07:05.254Z,101423.63
2022-07-29T06:09:36.205Z,101419.81
2022-07-29T06:12:06.902Z,101415.84
2022-07-29T06:14:38.960Z,101423.00
2022-07-29T06:17:07.552Z,101418.91
2022-07-29T06:19:37.335Z,101414.75
2022-07-29T06:25:44.261Z,101424.13
2022-07-29T06:28:18.361Z,101428.63
2022-07-29T06:30:58.848Z,101426.09
2022-07-29T06:33:40.979Z,101421.09
2022-07-29T06:36:27.306Z,101416.31
2022-07-29T06:39:06.882Z,101410.28
2022-07-29T06:41:56.759Z,101408.06
2022-07-29T06:44:28.592Z,101416.88
2022-07-29T06:47:01.247Z,101422.88
2022-07-29T06:49:31.660Z,101421.00
2022-07-29T06:52:04.045Z,101424.97
2022-07-29T06:54:32.950Z,101426.44
2022-07-29T06:57:05.616Z,101417.75
2022-07-29T06:59:38.205Z,101423.25
2022-07-29T07:02:05.919Z,101415.63
2022-07-29T07:04:34.397Z,101421.78
2022-07-29T07:07:02.465Z,101429.28
2022-07-29T07:09:40.185Z,101431.63
2022-07-29T07:12:09.126Z,101433.44
2022-07-29T07:14:38.075Z,101434.44
2022-07-29T07:17:07.944Z,101433.78
2022-07-29T07:19:35.673Z,101436.47
2022-07-29T07:22:03.827Z,101439.13
2022-07-29T07:24:32.498Z,101434.09
2022-07-29T07:27:00.185Z,101440.66
2022-07-29T07:29:27.905Z,101432.00
2022-07-29T07:32:00.950Z,101433.56
2022-07-29T07:34:29.816Z,101438.66
2022-07-29T07:36:57.392Z,101431.47
2022-07-29T07:39:25.977Z,101432.09
2022-07-29T07:41:54.439Z,101431.81
2022-07-29T07:44:22.407Z,101431.75
2022-07-29T07:46:50.565Z,101433.06
2022-07-29T07:49:22.726Z,101438.34
2022-07-29T07:51:51.239Z,101435.69
2022-07-29T07:54:20.546Z,101431.00
2022-07-29T07:56:53.099Z,101430.59
2022-07-29T07:59:21.549Z,101430.75
2022-07-29T08:01:55.910Z,101435.75
2022-07-29T08:04:32.136Z,101436.91
2022-07-29T08:07:02.562Z,101430.72
2022-07-29T08:09:32.269Z,101422.03
2022-07-29T08:12:04.037Z,101422.91
2022-07-29T08:14:33.021Z,101424.41
2022-07-29T08:17:02.619Z,101419.06
2022-07-29T08:19:39.732Z,101413.13
2022-07-29T08:22:11.046Z,101408.97
2022-07-29T08:24:45.804Z,101414.47
2022-07-29T08:27:40.650Z,101416.59
2022-07-29T08:30:02.324Z,101423.03
2022-07-29T08:35:33.381Z,101422.31
2022-07-29T08:38:05.302Z,101416.31
2022-07-29T08:40:33.904Z,101409.81
2022-07-29T08:43:13.856Z,101411.28
2022-07-29T08:45:50.654Z,101410.84
2022-07-29T08:48:21.251Z,101406.56
2022-07-29T08:51:12.229Z,101409.84
2022-07-29T08:53:45.279Z,101412.31
2022-07-29T08:56:13.824Z,101402.34
2022-07-29T08:58:44.262Z,101396.47
2022-07-29T09:01:35.238Z,101396.50
2022-07-29T09:04:11.786Z,101392.41
2022-07-29T09:06:45.534Z,101400.56
2022-07-29T09:09:14.622Z,101391.09
2022-07-29T09:11:48.818Z,101392.31
2022-07-29T09:14:19.539Z,101394.59
2022-07-29T09:17:01.162Z,101382.34
2022-07-29T09:19:32.529Z,101384.28
2022-07-29T09:22:04.215Z,101384.06
2022-07-29T09:24:40.697Z,101383.16
2022-07-29T09:27:21.984Z,101381.59
2022-07-29T09:29:58.178Z,101386.75
2022-07-29T09:32:27.443Z,101379.75
2022-07-29T09:35:17.727Z,101385.53
2022-07-29T09:37:46.948Z,101383.88
2022-07-29T09:40:17.077Z,101388.41
2022-07-29T09:42:47.079Z,101383.00
2022-07-29T09:45:27.611Z,101388.38
2022-07-29T09:47:56.686Z,101383.47
2022-07-29T09:50:26.659Z,101388.19
2022-07-29T09:52:55.709Z,101373.25
2022-07-29T09:55:23.754Z,101372.09
2022-07-29T09:57:51.810Z,101362.53
2022-07-29T10:00:24.243Z,101374.59
2022-07-29T10:02:52.940Z,101373.94
2022-07-29T10:05:24.273Z,101362.31
2022-07-29T10:07:57.337Z,101364.75
2022-07-29T10:10:30.531Z,101366.06
2022-07-29T10:13:06.365Z,101367.41
2022-07-29T10:15:44.602Z,101361.75
2022-07-29T10:18:26.234Z,101366.34
2022-07-29T10:20:55.730Z,101370.03
2022-07-29T10:27:05.886Z,101362.28
2022-07-29T10:29:34.170Z,101366.16
2022-07-29T10:32:33.556Z,101371.97
2022-07-29T10:35:29.523Z,101356.22
2022-07-29T10:38:18.894Z,101364.75
2022-07-29T10:44:17.059Z,101357.09
2022-07-29T10:46:46.084Z,101355.81
2022-07-29T10:49:16.766Z,101355.59
2022-07-29T10:51:59.683Z,101353.31
2022-07-29T10:54:46.464Z,101339.59
2022-07-29T10:57:52.551Z,101349.09
2022-07-29T11:00:41.911Z,101343.16
2022-07-29T11:03:53.730Z,101344.50
2022-07-29T11:06:28.176Z,101343.19
2022-07-29T11:09:34.915Z,101338.97
2022-07-29T11:12:52.844Z,101333.63
2022-07-29T11:15:24.958Z,101337.59
2022-07-29T11:18:15.070Z,101334.41
2022-07-29T11:20:57.091Z,101338.53
2022-07-29T11:23:35.939Z,101326.88
2022-07-29T11:26:23.687Z,101334.06
2022-07-29T11:29:01.351Z,101322.19
2022-07-29T11:31:45.710Z,101330.22
2022-07-29T11:34:28.061Z,101331.03
2022-07-29T11:37:28.110Z,101332.41
2022-07-29T11:40:23.589Z,101332.13
2022-07-29T11:42:55.033Z,101340.28
2022-07-29T11:45:48.375Z,101320.38
2022-07-29T11:48:31.449Z,101319.75
2022-07-29T11:51:03.117Z,101326.28
2022-07-29T11:53:33.394Z,101313.84
2022-07-29T11:56:03.829Z,101317.09
2022-07-29T11:58:34.341Z,101322.44
2022-07-29T12:01:04.635Z,101322.69
2022-07-29T12:03:36.825Z,101320.47
2022-07-29T12:09:14.342Z,101309.13
2022-07-29T12:11:52.544Z,101308.72
2022-07-29T12:14:30.471Z,101304.91
2022-07-29T12:16:59.612Z,101305.88
2022-07-29T12:19:37.550Z,101306.81
2022-07-29T12:22:13.420Z,101290.41
2022-07-29T12:24:50.793Z,101293.19
2022-07-29T12:27:29.306Z,101298.59
2022-07-29T12:29:58.943Z,101295.78
2022-07-29T12:32:36.658Z,101294.97
2022-07-29T12:35:11.150Z,101284.06
2022-07-29T12:37:49.371Z,101285.72
2022-07-29T12:40:30.490Z,101280.47
2022-07-29T13:20:40.145Z,101254.97
2022-07-29T13:23:18.621Z,101259.22
2022-07-29T13:26:14.796Z,101253.09
2022-07-29T13:28:44.348Z,101241.00
2022-07-29T13:31:22.016Z,101236.28
2022-07-29T13:34:01.632Z,101234.28
2022-07-29T13:37:15.204Z,101233.34
2022-07-29T13:40:01.265Z,101235.75
2022-07-29T13:42:42.463Z,101233.66
2022-07-29T13:45:29.173Z,101227.50
2022-07-29T13:50:54.979Z,101213.13
2022-07-29T13:53:27.380Z,101225.69
2022-07-29T13:56:46.285Z,101215.88
2022-07-29T13:59:05.608Z,101223.03
2022-07-29T14:01:33.627Z,101223.66
2022-07-29T14:04:01.271Z,101225.00
2022-07-29T14:06:28.962Z,101216.41
2022-07-29T14:08:58.794Z,101213.00
2022-07-29T14:11:26.276Z,101214.31
2022-07-29T14:13:53.802Z,101215.31
2022-07-29T14:16:21.361Z,101216.03
2022-07-29T14:18:48.924Z,101204.94
2022-07-29T14:21:16.566Z,101203.88
2022-07-29T14:23:44.166Z,101198.34
2022-07-29T14:26:15.935Z,101190.31
2022-07-29T14:28:49.316Z,101198.22
2022-07-29T14:31:17.180Z,101191.81
2022-07-29T14:33:46.261Z,101195.75
2022-07-29T14:36:17.004Z,101197.63
2022-07-29T14:38:44.565Z,101193.28
2022-07-29T14:41:13.608Z,101181.38
2022-07-29T14:43:42.333Z,101183.84
2022-07-29T14:46:10.207Z,101179.72
2022-07-29T14:48:37.946Z,101180.94
2022-07-29T14:51:06.265Z,101184.00
2022-07-29T14:53:34.046Z,101188.72
2022-07-29T14:56:20.896Z,101181.31
2022-07-29T14:58:51.827Z,101185.41
2022-07-29T15:01:20.285Z,101180.63
2022-07-29T15:03:48.310Z,101183.47
2022-07-29T15:06:16.537Z,101173.47
2022-07-29T15:08:44.504Z,101178.56
2022-07-29T15:11:12.361Z,101172.66
2022-07-29T15:13:40.460Z,101180.00
2022-07-29T15:16:10.191Z,101170.13
2022-07-29T15:18:39.577Z,101171.47
2022-07-29T15:21:08.568Z,101174.72
2022-07-29T15:23:37.305Z,101179.56
2022-07-29T15:26:05.816Z,101177.06
2022-07-29T15:28:33.901Z,101173.94
2022-07-29T15:31:01.669Z,101164.78
2022-07-29T15:33:30.883Z,101176.44
2022-07-29T15:35:58.895Z,101184.72
2022-07-29T15:38:28.675Z,101168.56
2022-07-29T15:40:56.914Z,101168.31
2022-07-29T15:43:25.000Z,101171.69
2022-07-29T15:46:11.889Z,101163.28
2022-07-29T15:48:42.193Z,101156.38
2022-07-29T15:51:10.102Z,101166.00
2022-07-29T15:53:38.073Z,101164.31
2022-07-29T15:56:06.639Z,101162.84
2022-07-29T15:58:34.428Z,101154.97
2022-07-29T16:01:02.393Z,101158.31
2022-07-29T16:03:30.885Z,101145.66
2022-07-29T16:06:00.248Z,101145.91
2022-07-29T16:08:28.325Z,101145.28
2022-07-29T16:10:56.233Z,101135.34
2022-07-29T16:13:24.250Z,101144.22
2022-07-29T16:16:02.129Z,101144.44
2022-07-29T16:18:33.732Z,101141.97
2022-07-29T16:21:02.938Z,101142.75
2022-07-29T16:23:30.927Z,101143.38
2022-07-29T16:26:00.434Z,101130.09
2022-07-29T16:28:29.368Z,101128.97
2022-07-29T16:30:57.558Z,101127.19
2022-07-29T16:33:25.871Z,101118.72
2022-07-29T16:35:54.124Z,101116.31
2022-07-29T16:38:23.299Z,101113.88
2022-07-29T16:40:51.222Z,101115.16
2022-07-29T16:43:19.275Z,101110.84
2022-07-29T16:45:47.324Z,101113.75
2022-07-29T16:48:17.941Z,101121.22
2022-07-29T16:50:46.565Z,101114.31
2022-07-29T16:53:14.533Z,101107.34
2022-07-29T16:55:43.941Z,101115.94
2022-07-29T16:58:12.568Z,101109.66
2022-07-29T17:00:40.807Z,101113.75
2022-07-29T17:03:08.956Z,101110.41
2022-07-29T17:05:52.070Z,101108.81
2022-07-29T17:08:22.300Z,101108.41
2022-07-29T17:10:52.011Z,101119.81
2022-07-29T17:13:20.105Z,101117.59
2022-07-29T17:15:49.634Z,101118.47
2022-07-29T17:18:17.625Z,101115.00
2022-07-29T17:20:45.743Z,101114.22
2022-07-29T17:23:13.555Z,101111.38
2022-07-29T17:25:41.374Z,101112.22
2022-07-29T17:28:10.685Z,101112.22
2022-07-29T17:30:38.790Z,101110.34
2022-07-29T17:33:06.644Z,101113.84
2022-07-29T17:35:52.387Z,101112.03
2022-07-29T17:38:20.313Z,101111.63
2022-07-29T17:40:48.630Z,101105.38
2022-07-29T17:43:17.794Z,101110.53
2022-07-29T17:45:50.339Z,101117.56
2022-07-29T17:48:19.891Z,101115.94
2022-07-29T17:50:48.288Z,101123.78
2022-07-29T17:53:16.906Z,101121.13
2022-07-29T17:55:45.844Z,101114.75
2022-07-29T17:58:13.814Z,101121.13
2022-07-29T18:00:43.655Z,101119.25
2022-07-29T18:03:12.391Z,101118.66
2022-07-29T18:05:40.517Z,101113.69
2022-07-29T18:08:09.238Z,101124.03
2022-07-29T18:10:38.164Z,101116.59
2022-07-29T18:13:06.169Z,101122.19
2022-07-29T18:15:34.392Z,101120.34
2022-07-29T18:18:03.746Z,101125.28
2022-07-29T18:20:32.139Z,101130.88
2022-07-29T18:23:00.160Z,101121.81
2022-07-29T18:25:28.960Z,101129.88
2022-07-29T18:28:00.279Z,101132.94
2022-07-29T18:30:29.043Z,101144.28
2022-07-29T18:33:19.854Z,101144.09
2022-07-29T18:35:46.197Z,101145.56
2022-07-29T18:38:14.245Z,101146.94
2022-07-29T18:40:43.024Z,101144.88
2022-07-29T18:43:11.402Z,101142.00
2022-07-29T18:45:39.812Z,101148.41
2022-07-29T18:48:08.449Z,101147.34
2022-07-29T18:50:41.011Z,101143.63
2022-07-29T18:53:10.153Z,101158.84
2022-07-29T18:55:38.109Z,101150.59
2022-07-29T18:58:06.190Z,101150.78
2022-07-29T19:00:34.187Z,101152.22
2022-07-29T19:03:03.217Z,101164.56
2022-07-29T19:05:31.488Z,101152.38
2022-07-29T19:07:59.602Z,101149.66
2022-07-29T19:10:28.905Z,101162.00
2022-07-29T19:12:57.852Z,101153.94
2022-07-29T19:15:26.103Z,101160.72
2022-07-29T19:17:56.655Z,101165.84
2022-07-29T19:20:28.455Z,101171.78
2022-07-29T19:22:56.230Z,101177.91
2022-07-29T19:25:24.086Z,101176.38
2022-07-29T19:27:53.439Z,101175.06
2022-07-29T19:30:21.537Z,101177.69
2022-07-29T19:32:49.745Z,101174.41
2022-07-29T19:35:28.319Z,101183.63
2022-07-29T19:37:58.985Z,101186.88
2022-07-29T19:40:28.383Z,101179.25
2022-07-29T19:42:57.779Z,101179.84
2022-07-29T19:45:26.765Z,101181.25
2022-07-29T19:48:00.767Z,101180.63
2022-07-29T19:50:29.328Z,101187.16
2022-07-29T19:52:57.173Z,101183.25
2022-07-29T19:55:24.965Z,101191.84
2022-07-29T19:57:53.855Z,101187.25
2022-07-29T20:00:23.821Z,101192.34
2022-07-29T20:02:52.230Z,101187.38
2022-07-29T20:05:20.235Z,101184.47
2022-07-29T20:07:48.291Z,101184.84
2022-07-29T20:10:16.345Z,101190.53
2022-07-29T20:12:44.181Z,101191.94
2022-07-29T20:15:16.665Z,101184.69
2022-07-29T20:17:46.093Z,101181.75
2022-07-29T20:20:14.094Z,101184.81
2022-07-29T20:22:42.319Z,101178.19
2022-07-29T20:25:11.939Z,101180.44
2022-07-29T20:27:40.731Z,101190.66
2022-07-29T20:30:09.611Z,101189.56
2022-07-29T20:32:38.907Z,101183.78
2022-07-29T20:35:10.060Z,101184.97
2022-07-29T20:37:55.705Z,101191.53
2022-07-29T20:40:24.829Z,101200.09
2022-07-29T20:42:52.726Z,101198.19
2022-07-29T20:45:20.977Z,101199.94
2022-07-29T20:47:49.016Z,101196.59
2022-07-29T20:50:18.477Z,101197.00
2022-07-29T20:52:46.233Z,101198.00
2022-07-29T20:55:14.385Z,101203.50
2022-07-29T20:57:42.765Z,101206.72
2022-07-29T21:00:11.962Z,101203.41
2022-07-29T21:02:40.069Z,101201.94
2022-07-29T21:05:08.321Z,101207.66
2022-07-29T21:07:37.711Z,101210.72
2022-07-29T21:10:06.384Z,101207.56
2022-07-29T21:12:34.474Z,101196.59
2022-07-29T21:15:05.851Z,101203.16
2022-07-29T21:17:36.168Z,101215.03
2022-07-29T21:20:05.528Z,101212.72
2022-07-29T21:22:33.464Z,101208.59
2022-07-29T21:25:02.651Z,101214.28
2022-07-29T21:27:48.101Z,101216.50
2022-07-29T21:30:16.094Z,101217.03
2022-07-29T21:32:44.088Z,101218.41
2022-07-29T21:35:23.435Z,101218.97
2022-07-29T21:38:00.664Z,101210.00
2022-07-29T21:41:05.686Z,101211.41
2022-07-29T21:43:42.899Z,101217.41
2022-07-29T21:46:18.530Z,101227.16
2022-07-29T21:48:51.145Z,101220.06
2022-07-29T21:51:23.938Z,101218.59
2022-07-29T21:53:56.552Z,101218.78
2022-07-29T21:56:27.936Z,101209.44
2022-07-29T21:59:06.201Z,101208.00
2022-07-29T22:01:45.369Z,101205.69
2022-07-29T22:04:16.318Z,101208.41
2022-07-29T22:06:46.185Z,101210.47
2022-07-29T22:09:58.844Z,101203.91
2022-07-29T22:12:35.028Z,101211.66
2022-07-29T22:15:50.597Z,101206.16
2022-07-29T22:18:27.534Z,101206.34
2022-07-29T22:21:03.187Z,101195.03
2022-07-29T22:23:35.868Z,101207.84
2022-07-29T22:26:05.476Z,101208.03
2022-07-29T22:28:37.204Z,101203.72
2022-07-29T22:31:09.022Z,101195.56
2022-07-29T22:33:41.770Z,101200.88
2022-07-29T22:36:25.091Z,101195.91
2022-07-29T22:38:57.918Z,101195.75
2022-07-29T22:41:30.453Z,101199.47
2022-07-29T22:44:08.970Z,101194.00
2022-07-29T22:46:43.791Z,101197.31
2022-07-29T22:49:14.153Z,101196.66
2022-07-29T22:51:45.773Z,101190.34
2022-07-29T22:54:17.121Z,101178.03
2022-07-29T22:56:46.652Z,101179.56
2022-07-29T22:59:20.393Z,101174.41
2022-07-29T23:01:53.557Z,101174.41
2022-07-29T23:04:30.734Z,101176.25
2022-07-29T23:07:05.019Z,101178.56
2022-07-29T23:09:38.149Z,101169.78
2022-07-29T23:12:10.790Z,101173.78
2022-07-29T23:14:45.007Z,101166.97
2022-07-29T23:17:24.980Z,101163.50
2022-07-29T23:19:54.866Z,101167.97
2022-07-29T23:22:27.278Z,101164.00
2022-07-29T23:24:57.150Z,101159.03
2022-07-29T23:27:35.549Z,101165.00
2022-07-29T23:30:09.820Z,101160.00
2022-07-29T23:32:40.103Z,101163.88
2022-07-29T23:35:15.228Z,101165.88
2022-07-29T23:37:44.487Z,101163.56
2022-07-29T23:40:31.195Z,101166.53
2022-07-29T23:42:59.326Z,101168.53
2022-07-29T23:45:39.902Z,101163.72
2022-07-29T23:48:12.532Z,101159.56
2022-07-29T23:50:40.370Z,101161.41
2022-07-29T23:53:08.253Z,101162.56
2022-07-29T23:55:39.263Z,101159.25
2022-07-29T23:58:07.431Z,101168.25
